Time;durP1;ratioP1;P1;durP2;ratioP2;P2;SDS_P1;SDS_P2;PMS_P1;PMS_P2;Temp;Humidity;BMP_temperature;BMP_pressure;BME280_temperature;BME280_humidity;BME280_pressure;Samples;Min_cycle;Max_cycle;Signal;HPM_P1;HPM_P2
2022/03/05 00:01:03;;;;;;;27.05;10.30;;;2.30;89.30;;;;;;4776902;29;20418;-74
2022/03/05 00:03:31;;;;;;;20.85;9.93;;;2.30;89.30;;;;;;4793761;29;20059;-74
2022/03/05 00:05:59;;;;;;;27.23;10.48;;;2.30;89.40;;;;;;4798678;29;20058;-74
2022/03/05 00:08:26;;;;;;;28.15;10.95;;;2.30;89.40;;;;;;4797072;29;20062;-74
2022/03/05 00:10:55;;;;;;;27.27;10.98;;;2.30;89.60;;;;;;4793916;29;20061;-74
2022/03/05 00:13:22;;;;;;;29.08;10.57;;;2.30;89.60;;;;;;4808502;29;20415;-74
2022/03/05 00:15:51;;;;;;;28.40;11.05;;;2.30;89.50;;;;;;4787097;29;20067;-74
2022/03/05 00:18:19;;;;;;;33.75;11.27;;;2.40;89.50;;;;;;4807401;29;20065;-74
2022/03/05 00:20:47;;;;;;;25.08;10.43;;;2.50;89.50;;;;;;4808342;29;20059;-74
2022/03/05 00:23:16;;;;;;;17.77;10.82;;;2.50;89.50;;;;;;4798576;29;20411;-74
2022/03/05 00:25:46;;;;;;;24.83;10.90;;;2.50;89.50;;;;;;4808849;29;20514;-74
2022/03/05 00:28:14;;;;;;;20.92;12.15;;;2.60;89.50;;;;;;4806756;29;20061;-74
2022/03/05 00:30:42;;;;;;;32.05;12.55;;;2.60;89.60;;;;;;4807560;29;20047;-74
2022/03/05 00:33:10;;;;;;;32.10;12.93;;;2.70;89.60;;;;;;4808636;29;20055;-74
2022/03/05 00:35:38;;;;;;;22.40;11.73;;;2.70;89.60;;;;;;4795049;29;20406;-74
2022/03/05 00:38:06;;;;;;;28.80;12.27;;;2.70;89.50;;;;;;4774422;30;20051;-74
2022/03/05 00:40:34;;;;;;;28.60;12.32;;;2.80;89.50;;;;;;4789510;30;20059;-74
2022/03/05 00:43:01;;;;;;;26.90;12.82;;;2.90;89.50;;;;;;4790431;30;20076;-74
2022/03/05 00:45:30;;;;;;;21.33;12.32;;;2.90;89.50;;;;;;4808499;29;20062;-74
2022/03/05 00:47:58;;;;;;;24.30;12.82;;;3.00;89.60;;;;;;4807580;29;20059;-74
2022/03/05 00:50:25;;;;;;;25.08;13.10;;;3.00;89.50;;;;;;4806688;29;20059;-74
2022/03/05 00:52:53;;;;;;;27.02;13.45;;;3.00;89.50;;;;;;4807862;29;20402;-74
2022/03/05 00:55:22;;;;;;;30.20;13.98;;;3.10;89.50;;;;;;4821953;29;20063;-74
2022/03/05 00:57:50;;;;;;;28.13;13.93;;;3.10;89.50;;;;;;4808263;29;20054;-73
2022/03/05 01:00:17;;;;;;;33.50;13.50;;;3.10;89.50;;;;;;4807911;29;20051;-74
2022/03/05 01:02:45;;;;;;;25.92;14.32;;;3.20;89.50;;;;;;4807700;29;20524;-74
2022/03/05 01:05:15;;;;;;;27.40;14.95;;;3.20;89.40;;;;;;4808127;29;20066;-74
2022/03/05 01:07:42;;;;;;;28.13;13.52;;;3.30;89.40;;;;;;4807938;29;20054;-73
2022/03/05 01:10:10;;;;;;;29.45;14.25;;;3.30;89.30;;;;;;4807567;29;20047;-74
2022/03/05 01:12:38;;;;;;;27.38;13.10;;;3.30;89.30;;;;;;4806150;29;20065;-74
2022/03/05 01:15:07;;;;;;;27.48;13.55;;;3.30;89.30;;;;;;4807504;29;20066;-74
2022/03/05 01:17:35;;;;;;;27.42;14.07;;;3.30;89.30;;;;;;4805962;29;20050;-74
2022/03/05 01:20:04;;;;;;;22.05;12.45;;;3.30;89.30;;;;;;4807890;29;20399;-73
2022/03/05 01:22:31;;;;;;;25.17;13.05;;;3.30;89.30;;;;;;4819443;29;20059;-73
2022/03/05 01:24:59;;;;;;;22.27;13.40;;;3.30;89.30;;;;;;4807331;29;20057;-74
2022/03/05 01:27:27;;;;;;;18.08;12.75;;;3.40;89.30;;;;;;4803090;29;20047;-73
2022/03/05 01:29:54;;;;;;;22.90;12.98;;;3.40;89.30;;;;;;4806521;29;20666;-73
2022/03/05 01:32:22;;;;;;;18.02;12.07;;;3.50;89.30;;;;;;4806071;29;20047;-73
2022/03/05 01:34:50;;;;;;;24.30;10.80;;;3.50;89.30;;;;;;4821393;29;20054;-73
2022/03/05 01:37:18;;;;;;;18.92;10.45;;;3.50;89.30;;;;;;4806169;29;20047;-73
2022/03/05 01:39:45;;;;;;;17.23;11.15;;;3.50;89.20;;;;;;4820829;29;20054;-74
2022/03/05 01:42:13;;;;;;;15.43;10.80;;;3.50;89.10;;;;;;4807212;29;20050;-74
2022/03/05 01:44:42;;;;;;;20.73;11.43;;;3.40;89.10;;;;;;4806650;29;20054;-74
2022/03/05 01:47:10;;;;;;;20.25;11.65;;;3.40;89.10;;;;;;4807621;29;20050;-73
2022/03/05 01:49:38;;;;;;;16.35;10.68;;;3.30;89.00;;;;;;4814408;29;20054;-73
2022/03/05 01:52:06;;;;;;;16.85;9.63;;;3.30;89.00;;;;;;4809531;29;20058;-73
2022/03/05 01:54:33;;;;;;;13.57;8.80;;;3.20;89.10;;;;;;4807238;29;20410;-74
2022/03/05 01:57:03;;;;;;;14.10;8.63;;;3.00;89.10;;;;;;4807129;29;20510;-73
2022/03/05 01:59:32;;;;;;;12.95;8.60;;;2.90;89.20;;;;;;4806578;29;20055;-74
2022/03/05 02:02:00;;;;;;;11.13;8.27;;;2.80;89.30;;;;;;4807260;29;20051;-73
2022/03/05 02:04:28;;;;;;;17.42;9.70;;;2.70;89.40;;;;;;4806629;29;20077;-73
2022/03/05 02:06:56;;;;;;;17.10;9.88;;;2.70;89.40;;;;;;4807264;29;20062;-73
2022/03/05 02:09:25;;;;;;;15.82;9.57;;;2.60;89.40;;;;;;4807095;29;20062;-74
2022/03/05 02:11:53;;;;;;;20.60;10.52;;;2.50;89.60;;;;;;4805980;29;20047;-74
2022/03/05 02:14:20;;;;;;;21.45;10.25;;;2.40;89.70;;;;;;4806189;29;20074;-74
2022/03/05 02:16:48;;;;;;;23.58;10.85;;;2.30;89.80;;;;;;4806636;29;20070;-74
2022/03/05 02:19:17;;;;;;;22.00;11.18;;;2.30;89.70;;;;;;4806939;29;20079;-74
2022/03/05 02:21:46;;;;;;;19.95;11.98;;;2.20;89.80;;;;;;4806118;29;20050;-74
2022/03/05 02:24:15;;;;;;;17.27;12.45;;;2.20;90.00;;;;;;4806524;29;20502;-74
2022/03/05 02:26:43;;;;;;;20.95;11.80;;;2.20;90.10;;;;;;4804973;29;20534;-73
2022/03/05 02:29:10;;;;;;;24.80;11.80;;;2.20;90.10;;;;;;4797393;29;20058;-74
2022/03/05 02:31:38;;;;;;;19.88;12.65;;;2.10;90.00;;;;;;4788767;30;20055;-74
2022/03/05 02:34:06;;;;;;;22.17;12.85;;;2.00;90.00;;;;;;4795505;29;20051;-73
2022/03/05 02:36:33;;;;;;;27.25;12.45;;;2.00;90.00;;;;;;4805874;29;20055;-73
2022/03/05 02:39:01;;;;;;;22.73;13.45;;;2.00;90.00;;;;;;4820316;29;20083;-74
2022/03/05 02:41:28;;;;;;;24.05;14.55;;;1.80;90.00;;;;;;4805808;29;20050;-74
2022/03/05 02:43:57;;;;;;;30.15;16.30;;;1.80;90.10;;;;;;4805705;29;20520;-74
2022/03/05 02:46:26;;;;;;;26.70;15.77;;;1.70;90.20;;;;;;4804552;29;20077;-74
2022/03/05 02:48:54;;;;;;;27.83;15.27;;;1.70;90.30;;;;;;4805243;29;20050;-74
2022/03/05 02:51:22;;;;;;;35.03;17.50;;;1.60;90.20;;;;;;4806298;29;20051;-74
2022/03/05 02:53:50;;;;;;;32.88;18.90;;;1.50;90.20;;;;;;4806006;29;20047;-74
2022/03/05 02:56:17;;;;;;;30.75;18.23;;;1.40;90.30;;;;;;4805186;29;20063;-74
2022/03/05 02:58:45;;;;;;;29.42;19.50;;;1.40;90.30;;;;;;4804019;29;20059;-74
2022/03/05 03:01:12;;;;;;;39.03;21.20;;;1.30;90.30;;;;;;4805886;29;20069;-74
2022/03/05 03:03:41;;;;;;;36.42;19.00;;;1.30;90.50;;;;;;4804878;29;20043;-74
2022/03/05 03:06:08;;;;;;;36.40;19.98;;;1.20;90.50;;;;;;4806000;29;20055;-74
2022/03/05 03:08:36;;;;;;;32.20;20.20;;;1.10;90.30;;;;;;4805821;29;20043;-74
2022/03/05 03:11:04;;;;;;;31.25;18.60;;;1.10;90.60;;;;;;4804757;29;20054;-74
2022/03/05 03:13:32;;;;;;;30.65;17.92;;;1.20;91.00;;;;;;4805857;29;20054;-74
2022/03/05 03:15:59;;;;;;;31.17;18.15;;;1.20;91.20;;;;;;4805348;29;20593;-74
2022/03/05 03:18:27;;;;;;;31.98;19.27;;;1.30;91.30;;;;;;4806000;29;20406;-74
2022/03/05 03:20:54;;;;;;;37.67;19.58;;;1.30;91.30;;;;;;4804962;29;20619;-74
2022/03/05 03:23:22;;;;;;;31.15;17.92;;;1.40;91.40;;;;;;4804388;29;20521;-74
2022/03/05 03:25:50;;;;;;;38.45;18.27;;;1.50;91.40;;;;;;4805528;29;20074;-74
2022/03/05 03:28:22;;;;;;;30.30;16.87;;;1.60;91.30;;;;;;4804510;29;20047;-74
2022/03/05 03:30:50;;;;;;;34.33;18.60;;;1.70;91.20;;;;;;4804341;29;20305;-74
2022/03/05 03:33:17;;;;;;;33.90;17.55;;;1.70;91.10;;;;;;4805367;29;20074;-74
2022/03/05 03:35:45;;;;;;;29.40;16.92;;;1.70;91.00;;;;;;4805741;29;20055;-74
2022/03/05 03:38:13;;;;;;;33.63;16.30;;;1.70;91.00;;;;;;4798964;29;20059;-74
2022/03/05 03:40:41;;;;;;;28.77;15.82;;;1.70;91.10;;;;;;4804449;29;20498;-74
2022/03/05 03:43:08;;;;;;;28.85;16.95;;;1.80;91.20;;;;;;4804218;29;20043;-74
2022/03/05 03:45:36;;;;;;;34.45;17.30;;;1.70;91.10;;;;;;4804061;29;20054;-73
2022/03/05 03:48:04;;;;;;;38.35;17.63;;;1.70;91.00;;;;;;4805010;29;20493;-75
2022/03/05 03:50:31;;;;;;;31.42;18.45;;;1.70;90.90;;;;;;4803763;29;20062;-74
2022/03/05 03:53:00;;;;;;;29.75;17.45;;;1.70;90.80;;;;;;4805251;29;20062;-73
2022/03/05 03:55:27;;;;;;;29.73;17.27;;;1.60;91.00;;;;;;4804504;29;20070;-73
2022/03/05 03:57:55;;;;;;;33.85;17.52;;;1.60;91.00;;;;;;4806195;29;20070;-74
2022/03/05 04:00:23;;;;;;;29.10;18.35;;;1.60;91.10;;;;;;4814446;29;20074;-74
2022/03/05 04:02:52;;;;;;;33.20;18.50;;;1.60;91.20;;;;;;4807330;29;20050;-74
2022/03/05 04:05:20;;;;;;;31.95;17.02;;;1.50;91.20;;;;;;4803560;29;20066;-74
2022/03/05 04:10:33;;;;;;;28.30;16.30;;;1.50;91.10;;;;;;4785591;29;20062;-74
2022/03/05 04:13:01;;;;;;;31.00;17.27;;;1.50;91.10;;;;;;4805014;29;20058;-74
2022/03/05 04:15:29;;;;;;;27.15;15.82;;;1.40;91.20;;;;;;4805073;29;20054;-74
2022/03/05 04:17:56;;;;;;;28.02;15.70;;;1.40;91.20;;;;;;4804894;29;20054;-74
2022/03/05 04:20:25;;;;;;;25.98;15.43;;;1.30;91.20;;;;;;4804357;29;20067;-74
2022/03/05 04:22:52;;;;;;;27.60;14.50;;;1.30;91.30;;;;;;4803794;29;20503;-74
2022/03/05 04:25:20;;;;;;;26.38;14.50;;;1.30;91.20;;;;;;4804792;29;20086;-75
2022/03/05 04:27:47;;;;;;;29.45;15.23;;;1.30;91.20;;;;;;4804725;29;20058;-74
2022/03/05 04:30:15;;;;;;;28.60;14.45;;;1.20;91.40;;;;;;4803437;29;20051;-74
2022/03/05 04:32:43;;;;;;;25.25;14.50;;;1.20;91.40;;;;;;4804728;29;20063;-74
2022/03/05 04:35:12;;;;;;;28.80;14.07;;;1.20;91.50;;;;;;4804774;29;20069;-74
2022/03/05 04:37:40;;;;;;;24.67;13.02;;;1.20;91.50;;;;;;4804532;29;20055;-74
2022/03/05 04:40:08;;;;;;;21.80;12.15;;;1.20;91.50;;;;;;4803862;29;20066;-75
2022/03/05 04:42:36;;;;;;;20.73;12.32;;;1.20;91.50;;;;;;4803694;29;20051;-74
2022/03/05 04:45:06;;;;;;;20.77;12.07;;;1.10;91.60;;;;;;4800305;29;20058;-75
2022/03/05 04:47:35;;;;;;;20.17;12.00;;;1.20;91.70;;;;;;4804651;29;20047;-74
2022/03/05 04:50:04;;;;;;;22.05;11.20;;;1.20;91.70;;;;;;4804377;29;20054;-74
2022/03/05 04:52:33;;;;;;;22.65;11.15;;;1.20;91.80;;;;;;4803325;29;20058;-74
2022/03/05 04:55:03;;;;;;;15.98;9.88;;;1.20;91.80;;;;;;4804487;29;20059;-74
2022/03/05 04:57:30;;;;;;;18.98;9.98;;;1.20;91.80;;;;;;4803425;29;20074;-74
2022/03/05 04:59:58;;;;;;;23.45;10.27;;;1.30;91.80;;;;;;4803540;29;20066;-74
2022/03/05 05:02:26;;;;;;;25.73;11.43;;;1.30;91.70;;;;;;4804532;29;20494;-74
2022/03/05 05:04:53;;;;;;;16.30;9.82;;;1.30;91.60;;;;;;4807664;29;20409;-74
2022/03/05 05:07:21;;;;;;;18.27;9.82;;;1.20;91.50;;;;;;4806324;29;20134;-74
2022/03/05 05:09:49;;;;;;;21.80;10.18;;;1.20;91.40;;;;;;4807751;29;20050;-74
2022/03/05 05:12:16;;;;;;;20.23;10.40;;;1.20;91.40;;;;;;4806535;29;20067;-74
2022/03/05 05:14:44;;;;;;;22.63;10.10;;;1.10;91.30;;;;;;4807461;29;20057;-74
2022/03/05 05:17:12;;;;;;;17.63;9.88;;;1.10;91.40;;;;;;4821473;29;20055;-74
2022/03/05 05:19:39;;;;;;;18.23;10.63;;;1.00;91.40;;;;;;4820038;29;20414;-74
2022/03/05 05:22:07;;;;;;;18.75;10.20;;;0.90;91.30;;;;;;4803327;29;20051;-74
2022/03/05 05:24:36;;;;;;;19.77;9.95;;;0.90;91.30;;;;;;4794375;29;20059;-74
2022/03/05 05:27:05;;;;;;;26.27;10.38;;;0.80;91.30;;;;;;4800487;29;20417;-74
2022/03/05 05:29:33;;;;;;;20.20;10.20;;;0.80;91.40;;;;;;4821269;29;20054;-74
2022/03/05 05:32:10;;;;;;;20.67;11.13;;;0.80;91.40;;;;;;4806328;29;20047;-74
2022/03/05 05:34:39;;;;;;;21.88;10.68;;;0.80;91.40;;;;;;4807283;29;20055;-74
2022/03/05 05:37:14;;;;;;;19.90;10.20;;;0.80;91.50;;;;;;4820688;29;20051;-74
2022/03/05 05:39:42;;;;;;;16.70;10.25;;;0.70;91.60;;;;;;4806166;29;20066;-74
2022/03/05 05:42:10;;;;;;;20.20;9.18;;;0.70;91.80;;;;;;4807187;29;20406;-74
2022/03/05 05:44:38;;;;;;;22.48;9.75;;;0.70;91.80;;;;;;4805603;29;20407;-75
2022/03/05 05:47:07;;;;;;;17.27;9.90;;;0.70;91.70;;;;;;4807071;29;20130;-74
2022/03/05 05:49:36;;;;;;;21.60;10.18;;;0.70;91.70;;;;;;4807341;29;20051;-74
2022/03/05 05:52:05;;;;;;;17.13;9.38;;;0.70;91.70;;;;;;4805250;29;20514;-75
2022/03/05 05:54:33;;;;;;;21.05;10.02;;;0.70;91.70;;;;;;4801455;29;20058;-75
2022/03/05 05:57:01;;;;;;;21.52;9.40;;;0.60;91.70;;;;;;4801972;29;20054;-74
2022/03/05 05:59:29;;;;;;;21.02;9.45;;;0.70;91.80;;;;;;4807379;29;20063;-74
2022/03/05 06:01:58;;;;;;;18.50;9.18;;;0.60;91.80;;;;;;4789142;30;20062;-75
2022/03/05 06:04:26;;;;;;;18.42;10.02;;;0.60;91.80;;;;;;4817006;29;20510;-74
2022/03/05 06:06:54;;;;;;;18.23;9.27;;;0.60;91.80;;;;;;4820032;29;20062;-75
2022/03/05 06:09:23;;;;;;;16.73;9.68;;;0.60;91.70;;;;;;4805579;29;20062;-75
2022/03/05 06:11:50;;;;;;;19.83;9.98;;;0.50;91.60;;;;;;4806751;29;20050;-75
2022/03/05 06:14:19;;;;;;;19.17;9.63;;;0.50;91.60;;;;;;4806459;29;20054;-75
2022/03/05 06:16:47;;;;;;;16.80;8.88;;;0.40;91.50;;;;;;4806925;29;20058;-75
2022/03/05 06:19:14;;;;;;;25.58;9.90;;;0.40;91.40;;;;;;4806967;29;20051;-75
2022/03/05 06:21:42;;;;;;;20.95;10.10;;;0.30;91.30;;;;;;4805479;29;20505;-75
2022/03/05 06:24:10;;;;;;;20.58;10.25;;;0.20;91.20;;;;;;4820113;29;20073;-75
2022/03/05 06:26:37;;;;;;;27.55;10.93;;;0.20;91.20;;;;;;4798768;29;20047;-75
2022/03/05 06:29:05;;;;;;;28.10;11.07;;;0.10;91.30;;;;;;4788536;30;20047;-75
2022/03/05 06:31:32;;;;;;;21.35;10.30;;;0.10;91.50;;;;;;4800644;29;20051;-75
2022/03/05 06:34:00;;;;;;;16.40;10.38;;;0.20;91.60;;;;;;4806271;29;20482;-75
2022/03/05 06:36:28;;;;;;;28.73;12.63;;;0.10;91.50;;;;;;4805287;29;20073;-75
2022/03/05 06:38:56;;;;;;;27.80;13.18;;;0.10;91.50;;;;;;4805301;29;20070;-75
2022/03/05 06:41:24;;;;;;;22.38;12.13;;;0.20;92.00;;;;;;4806301;29;20062;-75
2022/03/05 06:43:51;;;;;;;27.50;13.88;;;0.30;92.20;;;;;;4806074;29;20058;-75
2022/03/05 06:46:19;;;;;;;27.08;14.02;;;0.40;92.40;;;;;;4806165;29;20130;-75
2022/03/05 06:48:47;;;;;;;27.55;13.65;;;0.50;92.40;;;;;;4804685;29;20043;-75
2022/03/05 06:51:15;;;;;;;31.05;14.45;;;0.50;92.20;;;;;;4806059;29;20405;-75
2022/03/05 06:53:43;;;;;;;29.98;14.15;;;0.50;92.00;;;;;;4804523;29;20524;-75
2022/03/05 06:56:10;;;;;;;30.35;13.73;;;0.50;91.90;;;;;;4805819;29;20524;-75
2022/03/05 06:58:38;;;;;;;28.20;14.95;;;0.50;91.90;;;;;;4805960;29;20062;-75
2022/03/05 07:01:05;;;;;;;28.80;14.23;;;0.50;92.10;;;;;;4802192;29;20524;-75
2022/03/05 07:03:33;;;;;;;25.58;14.40;;;0.50;92.10;;;;;;4791544;29;20058;-75
2022/03/05 07:06:01;;;;;;;27.52;14.65;;;0.50;92.10;;;;;;4804714;29;20133;-75
2022/03/05 07:08:28;;;;;;;26.42;14.43;;;0.60;92.30;;;;;;4805845;29;20077;-75
2022/03/05 07:10:56;;;;;;;26.45;14.38;;;0.60;92.30;;;;;;4805794;29;20054;-75
2022/03/05 07:13:24;;;;;;;25.35;14.30;;;0.70;92.40;;;;;;4803833;29;20067;-74
2022/03/05 07:15:51;;;;;;;26.75;14.45;;;0.70;92.50;;;;;;4806025;29;20394;-75
2022/03/05 07:18:19;;;;;;;29.23;14.63;;;0.70;92.50;;;;;;4805299;29;20058;-75
2022/03/05 07:20:47;;;;;;;23.95;13.73;;;0.80;92.50;;;;;;4796976;29;20050;-75
2022/03/05 07:23:14;;;;;;;26.83;13.45;;;0.80;92.50;;;;;;4796833;29;20051;-75
2022/03/05 07:25:43;;;;;;;29.52;13.23;;;0.80;92.60;;;;;;4796137;29;20509;-75
2022/03/05 07:28:11;;;;;;;27.67;12.25;;;0.90;92.60;;;;;;4794661;29;20046;-74
2022/03/05 07:30:39;;;;;;;31.17;11.57;;;0.90;92.60;;;;;;4800104;29;20058;-75
2022/03/05 07:33:13;;;;;;;21.83;12.32;;;0.90;92.60;;;;;;4796200;29;20074;-75
2022/03/05 07:35:41;;;;;;;22.48;11.52;;;0.90;92.60;;;;;;4796556;29;20047;-74
2022/03/05 07:38:09;;;;;;;24.88;12.63;;;0.90;92.70;;;;;;4796681;29;20043;-75
2022/03/05 07:40:37;;;;;;;23.25;12.20;;;1.00;92.60;;;;;;4797179;29;20077;-75
2022/03/05 07:43:04;;;;;;;25.13;12.38;;;0.90;92.60;;;;;;4800747;29;20490;-75
2022/03/05 07:45:32;;;;;;;20.33;11.60;;;1.00;92.60;;;;;;4793809;29;20055;-74
2022/03/05 07:47:59;;;;;;;25.50;11.45;;;1.00;92.70;;;;;;4794144;29;20047;-75
2022/03/05 07:50:27;;;;;;;29.30;11.43;;;1.10;92.70;;;;;;4797201;29;20509;-75
2022/03/05 07:52:55;;;;;;;23.25;11.65;;;1.10;92.70;;;;;;4804193;29;20085;-75
2022/03/05 07:55:22;;;;;;;19.42;10.50;;;1.20;92.80;;;;;;4797254;29;20054;-74
2022/03/05 07:57:50;;;;;;;14.27;10.20;;;1.20;92.80;;;;;;4795280;29;20051;-75
2022/03/05 08:00:18;;;;;;;19.95;10.48;;;1.30;92.80;;;;;;4796702;29;20051;-75
2022/03/05 08:02:50;;;;;;;20.60;10.32;;;1.30;92.70;;;;;;4795547;29;20061;-75
2022/03/05 08:05:19;;;;;;;15.93;9.90;;;1.30;92.80;;;;;;4797861;29;20043;-75
2022/03/05 08:07:47;;;;;;;23.83;11.15;;;1.30;92.70;;;;;;4797427;29;20051;-75
2022/03/05 08:10:16;;;;;;;15.27;10.25;;;1.40;92.70;;;;;;4794868;29;20058;-75
2022/03/05 08:12:43;;;;;;;18.17;9.50;;;1.40;92.70;;;;;;4801183;29;20055;-75
2022/03/05 08:15:11;;;;;;;16.50;9.38;;;1.50;92.70;;;;;;4796452;29;20059;-75
2022/03/05 08:17:49;;;;;;;19.42;8.77;;;1.50;92.70;;;;;;4794083;29;20502;-75
2022/03/05 08:20:17;;;;;;;12.70;7.68;;;1.60;92.70;;;;;;4794813;29;20058;-75
2022/03/05 08:22:45;;;;;;;14.02;7.55;;;1.70;92.60;;;;;;4797107;29;20043;-75
2022/03/05 08:25:13;;;;;;;12.02;7.82;;;1.70;92.60;;;;;;4796306;29;20050;-74
2022/03/05 08:27:40;;;;;;;13.15;7.25;;;1.80;92.50;;;;;;4796321;29;20062;-74
2022/03/05 08:30:09;;;;;;;13.98;7.03;;;1.80;92.50;;;;;;4799465;29;20054;-74
2022/03/05 08:32:37;;;;;;;10.57;6.75;;;1.80;92.40;;;;;;4780007;29;20625;-74
2022/03/05 08:35:07;;;;;;;10.18;6.18;;;1.90;92.40;;;;;;4797423;29;20493;-74
2022/03/05 08:37:35;;;;;;;11.23;6.53;;;1.90;92.30;;;;;;4797292;29;20066;-74
2022/03/05 08:40:05;;;;;;;9.88;6.20;;;2.00;92.20;;;;;;4801704;29;20051;-74
2022/03/05 08:42:32;;;;;;;11.77;5.97;;;2.00;92.10;;;;;;4800694;29;20043;-74
2022/03/05 08:45:02;;;;;;;11.50;5.32;;;2.10;92.00;;;;;;4799807;29;20494;-74
2022/03/05 08:47:30;;;;;;;11.88;4.93;;;2.10;91.80;;;;;;4798238;29;20062;-74
2022/03/05 08:49:58;;;;;;;8.90;4.75;;;2.10;91.70;;;;;;4799025;29;20384;-74
2022/03/05 08:52:25;;;;;;;10.15;5.00;;;2.20;91.60;;;;;;4797617;29;20524;-74
2022/03/05 08:54:53;;;;;;;6.50;3.72;;;2.20;91.50;;;;;;4816197;29;20058;-74
2022/03/05 08:57:21;;;;;;;11.70;4.93;;;2.30;91.40;;;;;;4815824;29;20042;-74
2022/03/05 08:59:48;;;;;;;7.15;4.20;;;2.40;91.30;;;;;;4798099;29;20050;-74
2022/03/05 09:02:16;;;;;;;5.47;3.70;;;2.40;91.20;;;;;;4798186;29;20054;-74
2022/03/05 09:04:44;;;;;;;6.35;3.95;;;2.50;91.10;;;;;;4802147;29;20039;-74
2022/03/05 09:07:11;;;;;;;5.60;3.90;;;2.50;90.90;;;;;;4798766;29;20398;-74
2022/03/05 09:09:44;;;;;;;5.85;3.40;;;2.60;90.80;;;;;;4812423;29;20043;-74
2022/03/05 09:12:12;;;;;;;7.50;3.25;;;2.60;90.70;;;;;;4799253;29;20051;-74
2022/03/05 09:14:39;;;;;;;4.90;3.00;;;2.70;90.60;;;;;;4797115;29;20064;-74
2022/03/05 09:17:07;;;;;;;5.47;2.15;;;2.80;90.50;;;;;;4807410;29;20055;-73
2022/03/05 09:19:35;;;;;;;7.32;2.30;;;2.80;90.00;;;;;;4807439;29;20134;-74
2022/03/05 09:22:06;;;;;;;4.40;2.50;;;2.90;89.80;;;;;;4821099;29;20054;-73
2022/03/05 09:24:34;;;;;;;3.15;1.25;;;3.00;89.50;;;;;;4807577;29;20055;-74
2022/03/05 09:27:01;;;;;;;6.93;1.80;;;3.10;89.10;;;;;;4807656;29;20051;-74
2022/03/05 09:29:29;;;;;;;5.93;2.00;;;3.20;88.60;;;;;;4807234;29;20055;-74
2022/03/05 09:31:57;;;;;;;5.43;1.65;;;3.30;88.40;;;;;;4807625;29;20047;-74
2022/03/05 09:34:24;;;;;;;1.67;1.23;;;3.30;87.90;;;;;;4807397;29;20063;-74
2022/03/05 09:36:52;;;;;;;4.43;1.58;;;3.40;87.30;;;;;;4806165;29;20054;-75
2022/03/05 09:39:21;;;;;;;3.75;1.33;;;3.60;87.00;;;;;;4806087;29;20066;-74
2022/03/05 09:41:49;;;;;;;4.85;1.92;;;3.80;86.70;;;;;;4807261;29;20073;-74
2022/03/05 09:44:17;;;;;;;5.93;2.22;;;3.80;85.80;;;;;;4820871;29;20070;-74
2022/03/05 09:46:45;;;;;;;5.47;1.70;;;3.90;85.30;;;;;;4807025;29;20055;-74
2022/03/05 09:49:14;;;;;;;4.63;1.63;;;4.00;85.20;;;;;;4804009;29;20050;-74
2022/03/05 09:51:42;;;;;;;4.82;1.60;;;4.10;84.90;;;;;;4798841;29;20058;-73
2022/03/05 09:54:10;;;;;;;6.75;1.38;;;4.20;84.80;;;;;;4803967;29;20055;-73
2022/03/05 09:56:37;;;;;;;4.55;1.30;;;4.30;84.10;;;;;;4806654;29;20497;-73
2022/03/05 09:59:05;;;;;;;3.30;1.10;;;4.40;83.80;;;;;;4805679;29;20066;-74
2022/03/05 10:01:35;;;;;;;6.50;1.20;;;4.50;83.50;;;;;;4806183;29;20050;-73
2022/03/05 10:04:03;;;;;;;4.32;0.93;;;4.60;82.60;;;;;;4805327;29;20083;-73
2022/03/05 10:06:31;;;;;;;5.22;1.30;;;4.80;81.10;;;;;;4806391;29;20066;-73
2022/03/05 10:08:59;;;;;;;2.20;0.82;;;4.90;80.30;;;;;;4805251;29;20077;-74
2022/03/05 10:11:38;;;;;;;2.22;1.00;;;5.10;79.60;;;;;;4803172;29;20046;-73
2022/03/05 10:14:16;;;;;;;6.40;1.08;;;5.20;78.50;;;;;;4820363;29;20050;-74
2022/03/05 10:16:45;;;;;;;5.00;1.20;;;5.30;78.10;;;;;;4805224;29;20050;-74
2022/03/05 10:19:17;;;;;;;6.13;1.30;;;5.30;77.70;;;;;;4805634;29;20055;-74
2022/03/05 10:22:04;;;;;;;5.93;1.00;;;5.30;77.70;;;;;;4806666;29;20047;-74
2022/03/05 10:24:35;;;;;;;7.32;1.20;;;5.30;77.80;;;;;;4805931;29;20051;-74
2022/03/05 10:27:04;;;;;;;3.35;1.13;;;5.40;77.20;;;;;;4798258;29;20413;-74
2022/03/05 10:29:35;;;;;;;5.60;1.17;;;5.50;77.00;;;;;;4805425;29;20141;-74
2022/03/05 10:32:12;;;;;;;6.38;1.20;;;5.60;76.30;;;;;;4804664;29;20622;-73
2022/03/05 10:34:44;;;;;;;7.32;1.30;;;5.70;75.90;;;;;;4805483;29;20065;-72
2022/03/05 10:37:12;;;;;;;2.80;0.88;;;5.80;75.80;;;;;;4820517;29;20054;-74
2022/03/05 10:39:40;;;;;;;7.72;1.08;;;5.80;75.30;;;;;;4818608;29;20043;-74
2022/03/05 10:42:24;;;;;;;7.95;1.20;;;5.90;74.80;;;;;;4803755;29;20061;-73
2022/03/05 10:45:05;;;;;;;4.22;1.40;;;5.90;74.70;;;;;;4803493;29;20119;-74
2022/03/05 10:47:40;;;;;;;3.33;0.70;;;6.00;74.10;;;;;;4806022;29;20062;-73
2022/03/05 10:50:26;;;;;;;5.85;1.00;;;6.10;73.30;;;;;;4806490;29;20066;-74
2022/03/05 10:53:02;;;;;;;3.30;0.57;;;6.20;72.40;;;;;;4805574;29;20058;-74
2022/03/05 10:55:36;;;;;;;4.75;0.70;;;6.30;72.30;;;;;;4806034;29;20063;-73
2022/03/05 10:58:14;;;;;;;7.10;0.70;;;6.40;71.90;;;;;;4789730;29;20054;-73
2022/03/05 11:00:42;;;;;;;5.00;0.70;;;6.60;72.00;;;;;;4791154;29;20572;-73
2022/03/05 11:03:10;;;;;;;5.72;0.95;;;6.80;70.50;;;;;;4805740;29;20043;-74
2022/03/05 11:05:38;;;;;;;3.78;0.80;;;7.00;69.40;;;;;;4819524;29;20401;-74
2022/03/05 11:08:08;;;;;;;6.28;1.08;;;7.20;68.90;;;;;;4805695;29;20050;-73
2022/03/05 11:10:38;;;;;;;5.63;0.73;;;7.30;67.70;;;;;;4805391;29;20047;-73
2022/03/05 11:13:06;;;;;;;6.38;1.20;;;7.30;68.10;;;;;;4805528;29;20054;-74
2022/03/05 11:15:34;;;;;;;5.10;0.93;;;7.20;67.60;;;;;;4805531;29;20049;-73
2022/03/05 11:18:04;;;;;;;4.75;0.88;;;7.20;67.80;;;;;;4805417;29;20051;-73
2022/03/05 11:20:33;;;;;;;6.20;0.70;;;7.30;67.10;;;;;;4805645;29;20058;-73
2022/03/05 11:23:02;;;;;;;3.03;0.80;;;7.40;66.80;;;;;;4789576;29;20065;-73
2022/03/05 11:25:31;;;;;;;2.60;0.50;;;7.50;66.60;;;;;;4819315;29;20592;-74
2022/03/05 11:28:03;;;;;;;3.60;0.57;;;7.50;66.10;;;;;;4804514;29;20051;-73
2022/03/05 11:30:43;;;;;;;3.90;0.75;;;7.50;65.30;;;;;;4805472;29;20058;-74
2022/03/05 11:33:21;;;;;;;4.97;0.52;;;7.50;65.00;;;;;;4819326;29;20062;-73
2022/03/05 11:35:49;;;;;;;7.97;1.20;;;7.40;64.80;;;;;;4805386;29;20067;-73
2022/03/05 11:38:37;;;;;;;3.13;0.60;;;7.30;65.00;;;;;;4805171;29;20058;-73
2022/03/05 11:41:21;;;;;;;4.53;0.90;;;7.30;65.40;;;;;;4805316;29;20047;-73
2022/03/05 11:43:49;;;;;;;4.05;0.80;;;7.50;65.60;;;;;;4805416;29;20490;-73
2022/03/05 11:46:23;;;;;;;5.38;0.80;;;7.80;65.10;;;;;;4803447;29;20455;-73
2022/03/05 11:49:01;;;;;;;1.20;0.40;;;8.00;64.30;;;;;;4803647;29;20055;-74
2022/03/05 11:51:30;;;;;;;5.60;0.60;;;8.10;63.70;;;;;;4805207;29;20107;-73
2022/03/05 11:54:05;;;;;;;4.55;0.95;;;8.20;63.60;;;;;;4804918;29;20055;-73
2022/03/05 11:57:19;;;;;;;;;;;8.30;63.10;;;;;;4805590;29;20054;-73
2022/03/05 11:59:56;;;;;;;4.47;0.60;;;8.50;62.70;;;;;;4784706;30;19926;-72
2022/03/05 12:02:47;;;;;;;7.53;0.80;;;8.80;61.60;;;;;;4769804;30;20074;-73
2022/03/05 12:05:44;;;;;;;4.72;0.70;;;9.10;60.70;;;;;;4769967;30;20070;-72
2022/03/05 12:08:33;;;;;;;8.85;1.13;;;9.40;58.80;;;;;;4782914;30;20051;-70
2022/03/05 12:11:21;;;;;;;4.90;1.00;;;9.60;57.90;;;;;;4770019;30;20066;-71
2022/03/05 12:13:58;;;;;;;2.08;0.63;;;9.60;58.00;;;;;;4783908;30;20059;-73
2022/03/05 12:16:30;;;;;;;2.78;0.70;;;9.50;57.80;;;;;;4778612;30;20051;-72
2022/03/05 12:18:59;;;;;;;3.45;0.80;;;9.90;56.70;;;;;;4779647;30;20055;-72
2022/03/05 12:21:32;;;;;;;2.65;0.85;;;10.20;56.10;;;;;;4778388;30;20051;-71
2022/03/05 12:24:08;;;;;;;;;;;10.80;56.40;;;;;;4761290;30;20047;-73
2022/03/05 12:26:36;;;;;;;4.68;0.60;;;11.40;54.90;;;;;;4781892;30;19936;-73
2022/03/05 12:29:07;;;;;;;2.58;0.50;;;12.00;52.50;;;;;;4783778;29;20055;-74
2022/03/05 12:31:40;;;;;;;3.42;0.88;;;12.10;50.00;;;;;;4795443;29;20058;-73
2022/03/05 12:34:09;;;;;;;2.40;0.52;;;12.10;50.60;;;;;;4789444;29;20084;-72
2022/03/05 12:36:46;;;;;;;5.57;0.65;;;12.20;50.00;;;;;;4787712;29;20062;-71
2022/03/05 12:39:14;;;;;;;5.20;0.73;;;12.40;49.20;;;;;;4787310;29;20047;-73
2022/03/05 12:41:45;;;;;;;3.42;0.60;;;12.70;47.90;;;;;;4794540;29;20647;-73
2022/03/05 12:44:14;;;;;;;2.13;0.52;;;13.10;47.10;;;;;;4788390;29;20074;-73
2022/03/05 12:46:42;;;;;;;3.40;0.77;;;13.20;44.60;;;;;;4786359;29;20047;-73
2022/03/05 12:49:10;;;;;;;2.22;0.75;;;13.30;44.60;;;;;;4794267;29;20498;-73
2022/03/05 12:51:39;;;;;;;3.55;0.60;;;13.30;46.10;;;;;;4803374;29;20051;-73
2022/03/05 12:54:06;;;;;;;3.53;0.63;;;12.80;46.20;;;;;;4799053;29;20092;-73
2022/03/05 12:56:46;;;;;;;3.67;0.57;;;12.30;46.80;;;;;;4801142;29;20054;-74
2022/03/05 12:59:19;;;;;;;4.40;0.93;;;11.80;47.20;;;;;;4815357;29;20494;-73